sensor_id;sensor_type;location;lat;lon;timestamp;pressure;altitude;pressure_sealevel;temperature
19282;BMP180;9774;52.034;5.342;2023-05-07T00:00:37;101489.00;;;21.50
19282;BMP180;9774;52.034;5.342;2023-05-07T00:03:04;101490.00;;;21.50
19282;BMP180;9774;52.034;5.342;2023-05-07T00:05:32;101491.00;;;21.40
19282;BMP180;9774;52.034;5.342;2023-05-07T00:07:59;101491.00;;;21.40
19282;BMP180;9774;52.034;5.342;2023-05-07T00:10:27;101494.00;;;21.40
19282;BMP180;9774;52.034;5.342;2023-05-07T00:12:54;101481.00;;;21.40
19282;BMP180;9774;52.034;5.342;2023-05-07T00:15:23;101488.00;;;21.40
19282;BMP180;9774;52.034;5.342;2023-05-07T00:17:50;101487.00;;;21.40
19282;BMP180;9774;52.034;5.342;2023-05-07T00:20:17;101494.00;;;21.30
19282;BMP180;9774;52.034;5.342;2023-05-07T00:22:44;101482.00;;;21.30
19282;BMP180;9774;52.034;5.342;2023-05-07T00:25:12;101487.00;;;21.30
19282;BMP180;9774;52.034;5.342;2023-05-07T00:27:39;101484.00;;;21.30
19282;BMP180;9774;52.034;5.342;2023-05-07T00:30:07;101477.00;;;21.30
19282;BMP180;9774;52.034;5.342;2023-05-07T00:32:36;101477.00;;;21.30
19282;BMP180;9774;52.034;5.342;2023-05-07T00:35:04;101462.00;;;21.30
19282;BMP180;9774;52.034;5.342;2023-05-07T00:37:32;101466.00;;;21.20
19282;BMP180;9774;52.034;5.342;2023-05-07T00:39:59;101470.00;;;21.20
19282;BMP180;9774;52.034;5.342;2023-05-07T00:42:29;101469.00;;;21.20
19282;BMP180;9774;52.034;5.342;2023-05-07T00:44:58;101470.00;;;21.20
19282;BMP180;9774;52.034;5.342;2023-05-07T00:47:26;101467.00;;;21.20
19282;BMP180;9774;52.034;5.342;2023-05-07T00:49:55;101467.00;;;21.20
19282;BMP180;9774;52.034;5.342;2023-05-07T00:52:26;101464.00;;;21.20
19282;BMP180;9774;52.034;5.342;2023-05-07T00:54:54;101458.00;;;21.20
19282;BMP180;9774;52.034;5.342;2023-05-07T00:57:22;101456.00;;;21.20
19282;BMP180;9774;52.034;5.342;2023-05-07T00:59:52;101457.00;;;21.20
19282;BMP180;9774;52.034;5.342;2023-05-07T01:02:19;101452.00;;;21.20
19282;BMP180;9774;52.034;5.342;2023-05-07T01:04:46;101461.00;;;21.20
19282;BMP180;9774;52.034;5.342;2023-05-07T01:07:15;101459.00;;;21.20
19282;BMP180;9774;52.034;5.342;2023-05-07T01:09:43;101456.00;;;21.20
19282;BMP180;9774;52.034;5.342;2023-05-07T01:12:11;101458.00;;;21.20
19282;BMP180;9774;52.034;5.342;2023-05-07T01:14:38;101453.00;;;21.10
19282;BMP180;9774;52.034;5.342;2023-05-07T01:17:05;101453.00;;;21.20
19282;BMP180;9774;52.034;5.342;2023-05-07T01:19:34;101455.00;;;21.20
19282;BMP180;9774;52.034;5.342;2023-05-07T01:22:03;101450.00;;;21.10
19282;BMP180;9774;52.034;5.342;2023-05-07T01:24:37;101449.00;;;21.10
19282;BMP180;9774;52.034;5.342;2023-05-07T01:27:05;101456.00;;;21.20
19282;BMP180;9774;52.034;5.342;2023-05-07T01:29:32;101448.00;;;21.20
19282;BMP180;9774;52.034;5.342;2023-05-07T01:32:00;101448.00;;;21.20
19282;BMP180;9774;52.034;5.342;2023-05-07T01:34:31;101451.00;;;21.10
19282;BMP180;9774;52.034;5.342;2023-05-07T01:37:00;101452.00;;;21.20
19282;BMP180;9774;52.034;5.342;2023-05-07T01:39:29;101456.00;;;21.20
19282;BMP180;9774;52.034;5.342;2023-05-07T01:41:59;101459.00;;;21.20
19282;BMP180;9774;52.034;5.342;2023-05-07T01:44:27;101463.00;;;21.20
19282;BMP180;9774;52.034;5.342;2023-05-07T01:46:55;101472.00;;;21.20
19282;BMP180;9774;52.034;5.342;2023-05-07T01:49:22;101458.00;;;21.20
19282;BMP180;9774;52.034;5.342;2023-05-07T01:51:50;101455.00;;;21.20
19282;BMP180;9774;52.034;5.342;2023-05-07T01:54:18;101455.00;;;21.20
19282;BMP180;9774;52.034;5.342;2023-05-07T01:56:46;101455.00;;;21.20
19282;BMP180;9774;52.034;5.342;2023-05-07T01:59:15;101464.00;;;21.20
19282;BMP180;9774;52.034;5.342;2023-05-07T02:01:42;101465.00;;;21.20
19282;BMP180;9774;52.034;5.342;2023-05-07T02:04:10;101461.00;;;21.20
19282;BMP180;9774;52.034;5.342;2023-05-07T02:06:37;101455.00;;;21.20
19282;BMP180;9774;52.034;5.342;2023-05-07T02:09:04;101459.00;;;21.20
19282;BMP180;9774;52.034;5.342;2023-05-07T02:11:31;101456.00;;;21.20
19282;BMP180;9774;52.034;5.342;2023-05-07T02:13:59;101451.00;;;21.20
19282;BMP180;9774;52.034;5.342;2023-05-07T02:16:27;101452.00;;;21.20
19282;BMP180;9774;52.034;5.342;2023-05-07T02:18:54;101446.00;;;21.20
19282;BMP180;9774;52.034;5.342;2023-05-07T02:21:22;101450.00;;;21.20
19282;BMP180;9774;52.034;5.342;2023-05-07T02:23:49;101447.00;;;21.20
19282;BMP180;9774;52.034;5.342;2023-05-07T02:26:17;101445.00;;;21.20
19282;BMP180;9774;52.034;5.342;2023-05-07T02:28:44;101446.00;;;21.20
19282;BMP180;9774;52.034;5.342;2023-05-07T02:31:11;101447.00;;;21.20
19282;BMP180;9774;52.034;5.342;2023-05-07T02:33:40;101443.00;;;21.20
19282;BMP180;9774;52.034;5.342;2023-05-07T02:36:08;101435.00;;;21.20
19282;BMP180;9774;52.034;5.342;2023-05-07T02:38:35;101442.00;;;21.20
19282;BMP180;9774;52.034;5.342;2023-05-07T02:41:03;101438.00;;;21.20
19282;BMP180;9774;52.034;5.342;2023-05-07T02:43:30;101438.00;;;21.20
19282;BMP180;9774;52.034;5.342;2023-05-07T02:46:04;101445.00;;;21.10
19282;BMP180;9774;52.034;5.342;2023-05-07T02:48:32;101447.00;;;21.20
19282;BMP180;9774;52.034;5.342;2023-05-07T02:51:01;101448.00;;;21.10
19282;BMP180;9774;52.034;5.342;2023-05-07T02:53:29;101454.00;;;21.20
19282;BMP180;9774;52.034;5.342;2023-05-07T02:55:56;101453.00;;;21.10
19282;BMP180;9774;52.034;5.342;2023-05-07T02:58:24;101456.00;;;21.10
19282;BMP180;9774;52.034;5.342;2023-05-07T03:00:52;101453.00;;;21.10
19282;BMP180;9774;52.034;5.342;2023-05-07T03:03:20;101441.00;;;21.10
19282;BMP180;9774;52.034;5.342;2023-05-07T03:05:47;101440.00;;;21.10
19282;BMP180;9774;52.034;5.342;2023-05-07T03:08:16;101444.00;;;21.10
19282;BMP180;9774;52.034;5.342;2023-05-07T03:10:43;101437.00;;;21.10
19282;BMP180;9774;52.034;5.342;2023-05-07T03:13:11;101437.00;;;21.00
19282;BMP180;9774;52.034;5.342;2023-05-07T03:15:38;101439.00;;;21.00
19282;BMP180;9774;52.034;5.342;2023-05-07T03:18:05;101436.00;;;21.00
19282;BMP180;9774;52.034;5.342;2023-05-07T03:20:33;101437.00;;;21.00
19282;BMP180;9774;52.034;5.342;2023-05-07T03:23:00;101434.00;;;21.00
19282;BMP180;9774;52.034;5.342;2023-05-07T03:25:29;101434.00;;;20.90
19282;BMP180;9774;52.034;5.342;2023-05-07T03:27:56;101435.00;;;20.90
19282;BMP180;9774;52.034;5.342;2023-05-07T03:30:24;101428.00;;;20.90
19282;BMP180;9774;52.034;5.342;2023-05-07T03:32:51;101447.00;;;20.90
19282;BMP180;9774;52.034;5.342;2023-05-07T03:35:20;101441.00;;;20.80
19282;BMP180;9774;52.034;5.342;2023-05-07T03:37:47;101441.00;;;20.80
19282;BMP180;9774;52.034;5.342;2023-05-07T03:40:16;101439.00;;;20.80
19282;BMP180;9774;52.034;5.342;2023-05-07T03:42:44;101440.00;;;20.80
19282;BMP180;9774;52.034;5.342;2023-05-07T03:45:12;101445.00;;;20.70
19282;BMP180;9774;52.034;5.342;2023-05-07T03:47:39;101440.00;;;20.70
19282;BMP180;9774;52.034;5.342;2023-05-07T03:50:07;101444.00;;;20.70
19282;BMP180;9774;52.034;5.342;2023-05-07T03:52:34;101434.00;;;20.70
19282;BMP180;9774;52.034;5.342;2023-05-07T03:55:01;101437.00;;;20.70
19282;BMP180;9774;52.034;5.342;2023-05-07T03:57:29;101440.00;;;20.70
19282;BMP180;9774;52.034;5.342;2023-05-07T03:59:57;101440.00;;;20.70
19282;BMP180;9774;52.034;5.342;2023-05-07T04:02:25;101443.00;;;20.70
19282;BMP180;9774;52.034;5.342;2023-05-07T04:04:52;101444.00;;;20.70
19282;BMP180;9774;52.034;5.342;2023-05-07T04:07:20;101449.00;;;20.70
19282;BMP180;9774;52.034;5.342;2023-05-07T04:09:47;101447.00;;;20.70
19282;BMP180;9774;52.034;5.342;2023-05-07T04:12:14;101448.00;;;20.70
19282;BMP180;9774;52.034;5.342;2023-05-07T04:14:42;101450.00;;;20.70
19282;BMP180;9774;52.034;5.342;2023-05-07T04:17:10;101452.00;;;20.70
19282;BMP180;9774;52.034;5.342;2023-05-07T04:19:38;101446.00;;;20.70
19282;BMP180;9774;52.034;5.342;2023-05-07T04:22:05;101439.00;;;20.70
19282;BMP180;9774;52.034;5.342;2023-05-07T04:24:32;101453.00;;;20.70
19282;BMP180;9774;52.034;5.342;2023-05-07T04:27:00;101449.00;;;20.70
19282;BMP180;9774;52.034;5.342;2023-05-07T04:29:27;101458.00;;;20.70
19282;BMP180;9774;52.034;5.342;2023-05-07T04:31:55;101452.00;;;20.70
19282;BMP180;9774;52.034;5.342;2023-05-07T04:34:24;101448.00;;;20.70
19282;BMP180;9774;52.034;5.342;2023-05-07T04:36:51;101454.00;;;20.80
19282;BMP180;9774;52.034;5.342;2023-05-07T04:39:19;101452.00;;;20.80
19282;BMP180;9774;52.034;5.342;2023-05-07T04:41:46;101454.00;;;20.80
19282;BMP180;9774;52.034;5.342;2023-05-07T04:44:13;101456.00;;;20.80
19282;BMP180;9774;52.034;5.342;2023-05-07T04:46:40;101454.00;;;20.80
19282;BMP180;9774;52.034;5.342;2023-05-07T04:49:08;101450.00;;;20.80
19282;BMP180;9774;52.034;5.342;2023-05-07T04:51:37;101454.00;;;20.90
19282;BMP180;9774;52.034;5.342;2023-05-07T04:54:08;101455.00;;;20.90
19282;BMP180;9774;52.034;5.342;2023-05-07T04:56:36;101460.00;;;20.90
19282;BMP180;9774;52.034;5.342;2023-05-07T04:59:03;101458.00;;;20.90
19282;BMP180;9774;52.034;5.342;2023-05-07T05:01:30;101453.00;;;20.90
19282;BMP180;9774;52.034;5.342;2023-05-07T05:03:58;101470.00;;;21.00
19282;BMP180;9774;52.034;5.342;2023-05-07T05:06:26;101469.00;;;21.00
19282;BMP180;9774;52.034;5.342;2023-05-07T05:08:54;101467.00;;;21.00
19282;BMP180;9774;52.034;5.342;2023-05-07T05:11:22;101474.00;;;21.00
19282;BMP180;9774;52.034;5.342;2023-05-07T05:13:49;101474.00;;;21.10
19282;BMP180;9774;52.034;5.342;2023-05-07T05:16:17;101476.00;;;21.10
19282;BMP180;9774;52.034;5.342;2023-05-07T05:18:44;101472.00;;;21.10
19282;BMP180;9774;52.034;5.342;2023-05-07T05:21:11;101475.00;;;21.10
19282;BMP180;9774;52.034;5.342;2023-05-07T05:23:39;101475.00;;;21.10
19282;BMP180;9774;52.034;5.342;2023-05-07T05:26:07;101470.00;;;21.10
19282;BMP180;9774;52.034;5.342;2023-05-07T05:28:34;101486.00;;;21.20
19282;BMP180;9774;52.034;5.342;2023-05-07T05:31:02;101486.00;;;21.20
19282;BMP180;9774;52.034;5.342;2023-05-07T05:33:29;101491.00;;;21.20
19282;BMP180;9774;52.034;5.342;2023-05-07T05:35:56;101488.00;;;21.20
19282;BMP180;9774;52.034;5.342;2023-05-07T05:38:24;101499.00;;;21.20
19282;BMP180;9774;52.034;5.342;2023-05-07T05:40:51;101496.00;;;21.20
19282;BMP180;9774;52.034;5.342;2023-05-07T05:43:20;101504.00;;;21.20
19282;BMP180;9774;52.034;5.342;2023-05-07T05:45:47;101506.00;;;21.20
19282;BMP180;9774;52.034;5.342;2023-05-07T05:48:15;101507.00;;;21.30
19282;BMP180;9774;52.034;5.342;2023-05-07T05:50:42;101509.00;;;21.30
19282;BMP180;9774;52.034;5.342;2023-05-07T05:53:10;101513.00;;;21.30
19282;BMP180;9774;52.034;5.342;2023-05-07T05:55:37;101521.00;;;21.30
19282;BMP180;9774;52.034;5.342;2023-05-07T05:58:04;101524.00;;;21.30
19282;BMP180;9774;52.034;5.342;2023-05-07T06:00:33;101522.00;;;21.30
19282;BMP180;9774;52.034;5.342;2023-05-07T06:03:01;101524.00;;;21.30
19282;BMP180;9774;52.034;5.342;2023-05-07T06:05:28;101524.00;;;21.30
19282;BMP180;9774;52.034;5.342;2023-05-07T06:07:55;101526.00;;;21.30
19282;BMP180;9774;52.034;5.342;2023-05-07T06:10:23;101528.00;;;21.30
19282;BMP180;9774;52.034;5.342;2023-05-07T06:12:52;101524.00;;;21.30
19282;BMP180;9774;52.034;5.342;2023-05-07T06:15:19;101532.00;;;21.30
19282;BMP180;9774;52.034;5.342;2023-05-07T06:17:48;101530.00;;;21.30
19282;BMP180;9774;52.034;5.342;2023-05-07T06:20:15;101526.00;;;21.30
19282;BMP180;9774;52.034;5.342;2023-05-07T06:22:43;101521.00;;;21.30
19282;BMP180;9774;52.034;5.342;2023-05-07T06:25:10;101528.00;;;21.30
19282;BMP180;9774;52.034;5.342;2023-05-07T06:27:37;101529.00;;;21.30
19282;BMP180;9774;52.034;5.342;2023-05-07T06:30:06;101523.00;;;21.30
19282;BMP180;9774;52.034;5.342;2023-05-07T06:32:34;101527.00;;;21.40
19282;BMP180;9774;52.034;5.342;2023-05-07T06:35:03;101517.00;;;21.40
19282;BMP180;9774;52.034;5.342;2023-05-07T06:37:31;101524.00;;;21.40
19282;BMP180;9774;52.034;5.342;2023-05-07T06:39:58;101532.00;;;21.40
19282;BMP180;9774;52.034;5.342;2023-05-07T06:42:26;101529.00;;;21.40
19282;BMP180;9774;52.034;5.342;2023-05-07T06:44:53;101531.00;;;21.40
19282;BMP180;9774;52.034;5.342;2023-05-07T06:47:21;101530.00;;;21.40
19282;BMP180;9774;52.034;5.342;2023-05-07T06:49:48;101534.00;;;21.40
19282;BMP180;9774;52.034;5.342;2023-05-07T06:52:17;101523.00;;;21.40
19282;BMP180;9774;52.034;5.342;2023-05-07T06:54:44;101527.00;;;21.50
19282;BMP180;9774;52.034;5.342;2023-05-07T06:57:11;101531.00;;;21.50
19282;BMP180;9774;52.034;5.342;2023-05-07T06:59:38;101531.00;;;21.50
19282;BMP180;9774;52.034;5.342;2023-05-07T07:02:06;101534.00;;;21.50
19282;BMP180;9774;52.034;5.342;2023-05-07T07:04:34;101532.00;;;21.60
19282;BMP180;9774;52.034;5.342;2023-05-07T07:07:01;101533.00;;;21.60
19282;BMP180;9774;52.034;5.342;2023-05-07T07:09:30;101532.00;;;21.70
19282;BMP180;9774;52.034;5.342;2023-05-07T07:11:58;101536.00;;;21.70
19282;BMP180;9774;52.034;5.342;2023-05-07T07:14:25;101541.00;;;21.80
19282;BMP180;9774;52.034;5.342;2023-05-07T07:16:53;101538.00;;;21.80
19282;BMP180;9774;52.034;5.342;2023-05-07T07:19:20;101534.00;;;21.90
19282;BMP180;9774;52.034;5.342;2023-05-07T07:21:49;101532.00;;;22.00
19282;BMP180;9774;52.034;5.342;2023-05-07T07:24:16;101530.00;;;22.00
19282;BMP180;9774;52.034;5.342;2023-05-07T07:26:48;101532.00;;;22.10
19282;BMP180;9774;52.034;5.342;2023-05-07T07:29:16;101531.00;;;22.20
19282;BMP180;9774;52.034;5.342;2023-05-07T07:31:44;101531.00;;;22.20
19282;BMP180;9774;52.034;5.342;2023-05-07T07:34:14;101530.00;;;22.30
19282;BMP180;9774;52.034;5.342;2023-05-07T07:36:42;101535.00;;;22.30
19282;BMP180;9774;52.034;5.342;2023-05-07T07:39:09;101535.00;;;22.40
19282;BMP180;9774;52.034;5.342;2023-05-07T07:41:36;101540.00;;;22.40
19282;BMP180;9774;52.034;5.342;2023-05-07T07:44:05;101548.00;;;22.40
19282;BMP180;9774;52.034;5.342;2023-05-07T07:46:33;101545.00;;;22.50
19282;BMP180;9774;52.034;5.342;2023-05-07T07:49:00;101554.00;;;22.50
19282;BMP180;9774;52.034;5.342;2023-05-07T07:51:28;101553.00;;;22.60
19282;BMP180;9774;52.034;5.342;2023-05-07T07:53:55;101558.00;;;22.60
19282;BMP180;9774;52.034;5.342;2023-05-07T07:56:23;101558.00;;;22.70
19282;BMP180;9774;52.034;5.342;2023-05-07T07:58:51;101555.00;;;22.70
19282;BMP180;9774;52.034;5.342;2023-05-07T08:01:19;101556.00;;;22.70
19282;BMP180;9774;52.034;5.342;2023-05-07T08:03:47;101558.00;;;22.80
19282;BMP180;9774;52.034;5.342;2023-05-07T08:06:14;101565.00;;;22.80
19282;BMP180;9774;52.034;5.342;2023-05-07T08:08:41;101557.00;;;22.80
19282;BMP180;9774;52.034;5.342;2023-05-07T08:11:08;101557.00;;;22.90
19282;BMP180;9774;52.034;5.342;2023-05-07T08:13:36;101558.00;;;22.90
19282;BMP180;9774;52.034;5.342;2023-05-07T08:16:05;101563.00;;;22.90
19282;BMP180;9774;52.034;5.342;2023-05-07T08:18:33;101557.00;;;23.00
19282;BMP180;9774;52.034;5.342;2023-05-07T08:21:01;101559.00;;;23.00
19282;BMP180;9774;52.034;5.342;2023-05-07T08:23:28;101558.00;;;23.10
19282;BMP180;9774;52.034;5.342;2023-05-07T08:25:56;101550.00;;;23.10
19282;BMP180;9774;52.034;5.342;2023-05-07T08:28:23;101557.00;;;23.10
19282;BMP180;9774;52.034;5.342;2023-05-07T08:30:51;101560.00;;;23.20
19282;BMP180;9774;52.034;5.342;2023-05-07T08:33:18;101569.00;;;23.20
19282;BMP180;9774;52.034;5.342;2023-05-07T08:35:47;101566.00;;;23.20
19282;BMP180;9774;52.034;5.342;2023-05-07T08:38:15;101573.00;;;23.20
19282;BMP180;9774;52.034;5.342;2023-05-07T08:40:42;101568.00;;;23.20
19282;BMP180;9774;52.034;5.342;2023-05-07T08:43:13;101569.00;;;23.20
19282;BMP180;9774;52.034;5.342;2023-05-07T08:45:41;101576.00;;;23.20
19282;BMP180;9774;52.034;5.342;2023-05-07T08:48:16;101569.00;;;23.20
19282;BMP180;9774;52.034;5.342;2023-05-07T08:50:43;101572.00;;;23.20
19282;BMP180;9774;52.034;5.342;2023-05-07T08:53:12;101570.00;;;23.20
19282;BMP180;9774;52.034;5.342;2023-05-07T08:55:40;101571.00;;;23.20
19282;BMP180;9774;52.034;5.342;2023-05-07T08:58:07;101568.00;;;23.20
19282;BMP180;9774;52.034;5.342;2023-05-07T09:00:36;101566.00;;;23.20
19282;BMP180;9774;52.034;5.342;2023-05-07T09:03:04;101568.00;;;23.30
19282;BMP180;9774;52.034;5.342;2023-05-07T09:05:31;101568.00;;;23.40
19282;BMP180;9774;52.034;5.342;2023-05-07T09:07:59;101574.00;;;23.40
19282;BMP180;9774;52.034;5.342;2023-05-07T09:10:29;101567.00;;;23.40
19282;BMP180;9774;52.034;5.342;2023-05-07T09:12:56;101573.00;;;23.50
19282;BMP180;9774;52.034;5.342;2023-05-07T09:15:23;101567.00;;;23.60
19282;BMP180;9774;52.034;5.342;2023-05-07T09:17:51;101577.00;;;23.70
19282;BMP180;9774;52.034;5.342;2023-05-07T09:20:18;101588.00;;;23.70
19282;BMP180;9774;52.034;5.342;2023-05-07T09:22:45;101578.00;;;23.80
19282;BMP180;9774;52.034;5.342;2023-05-07T09:25:13;101586.00;;;23.90
19282;BMP180;9774;52.034;5.342;2023-05-07T09:27:42;101584.00;;;24.00
19282;BMP180;9774;52.034;5.342;2023-05-07T09:30:10;101577.00;;;24.10
19282;BMP180;9774;52.034;5.342;2023-05-07T09:32:37;101575.00;;;24.10
19282;BMP180;9774;52.034;5.342;2023-05-07T09:35:09;101577.00;;;24.20
19282;BMP180;9774;52.034;5.342;2023-05-07T09:37:42;101577.00;;;24.30
19282;BMP180;9774;52.034;5.342;2023-05-07T09:40:21;101574.00;;;24.30
19282;BMP180;9774;52.034;5.342;2023-05-07T09:42:50;101574.00;;;24.40
19282;BMP180;9774;52.034;5.342;2023-05-07T09:45:22;101575.00;;;24.50
19282;BMP180;9774;52.034;5.342;2023-05-07T09:47:54;101578.00;;;24.50
19282;BMP180;9774;52.034;5.342;2023-05-07T09:50:25;101581.00;;;24.60
19282;BMP180;9774;52.034;5.342;2023-05-07T09:52:54;101585.00;;;24.70
19282;BMP180;9774;52.034;5.342;2023-05-07T09:55:22;101583.00;;;24.80
19282;BMP180;9774;52.034;5.342;2023-05-07T09:57:52;101589.00;;;24.80
19282;BMP180;9774;52.034;5.342;2023-05-07T10:00:20;101595.00;;;24.90
19282;BMP180;9774;52.034;5.342;2023-05-07T10:02:49;101594.00;;;24.90
19282;BMP180;9774;52.034;5.342;2023-05-07T10:05:18;101589.00;;;25.00
19282;BMP180;9774;52.034;5.342;2023-05-07T10:07:46;101588.00;;;25.00
19282;BMP180;9774;52.034;5.342;2023-05-07T10:10:15;101588.00;;;25.10
19282;BMP180;9774;52.034;5.342;2023-05-07T10:12:42;101595.00;;;25.20
19282;BMP180;9774;52.034;5.342;2023-05-07T10:15:12;101589.00;;;25.20
19282;BMP180;9774;52.034;5.342;2023-05-07T10:17:40;101593.00;;;25.30
19282;BMP180;9774;52.034;5.342;2023-05-07T10:20:09;101589.00;;;25.40
19282;BMP180;9774;52.034;5.342;2023-05-07T10:22:39;101595.00;;;25.50
19282;BMP180;9774;52.034;5.342;2023-05-07T10:25:16;101586.00;;;25.60
19282;BMP180;9774;52.034;5.342;2023-05-07T10:27:46;101585.00;;;25.70
19282;BMP180;9774;52.034;5.342;2023-05-07T10:30:26;101590.00;;;25.70
19282;BMP180;9774;52.034;5.342;2023-05-07T10:33:01;101586.00;;;25.90
19282;BMP180;9774;52.034;5.342;2023-05-07T10:35:36;101582.00;;;26.00
19282;BMP180;9774;52.034;5.342;2023-05-07T10:38:04;101588.00;;;26.10
19282;BMP180;9774;52.034;5.342;2023-05-07T10:40:32;101583.00;;;26.20
19282;BMP180;9774;52.034;5.342;2023-05-07T10:43:01;101586.00;;;26.30
19282;BMP180;9774;52.034;5.342;2023-05-07T10:45:32;101586.00;;;26.40
19282;BMP180;9774;52.034;5.342;2023-05-07T10:48:10;101590.00;;;26.40
19282;BMP180;9774;52.034;5.342;2023-05-07T10:50:38;101595.00;;;26.60
19282;BMP180;9774;52.034;5.342;2023-05-07T10:53:25;101596.00;;;26.50
19282;BMP180;9774;52.034;5.342;2023-05-07T10:56:25;101597.00;;;26.60
19282;BMP180;9774;52.034;5.342;2023-05-07T10:58:53;101600.00;;;26.80
19282;BMP180;9774;52.034;5.342;2023-05-07T11:01:52;101591.00;;;26.80
19282;BMP180;9774;52.034;5.342;2023-05-07T11:04:20;101593.00;;;27.00
19282;BMP180;9774;52.034;5.342;2023-05-07T11:07:26;101586.00;;;27.00
19282;BMP180;9774;52.034;5.342;2023-05-07T11:09:58;101593.00;;;27.20
19282;BMP180;9774;52.034;5.342;2023-05-07T11:12:46;101589.00;;;27.20
19282;BMP180;9774;52.034;5.342;2023-05-07T11:15:14;101593.00;;;27.40
19282;BMP180;9774;52.034;5.342;2023-05-07T11:17:55;101590.00;;;27.40
19282;BMP180;9774;52.034;5.342;2023-05-07T11:20:48;101592.00;;;27.40
19282;BMP180;9774;52.034;5.342;2023-05-07T11:23:57;101596.00;;;27.50
19282;BMP180;9774;52.034;5.342;2023-05-07T11:26:25;101603.00;;;27.60
19282;BMP180;9774;52.034;5.342;2023-05-07T11:28:53;101598.00;;;27.70
19282;BMP180;9774;52.034;5.342;2023-05-07T11:31:23;101600.00;;;27.70
19282;BMP180;9774;52.034;5.342;2023-05-07T11:33:52;101601.00;;;27.70
19282;BMP180;9774;52.034;5.342;2023-05-07T11:36:24;101602.00;;;27.70
19282;BMP180;9774;52.034;5.342;2023-05-07T11:38:52;101601.00;;;27.80
19282;BMP180;9774;52.034;5.342;2023-05-07T11:41:19;101606.00;;;27.80
19282;BMP180;9774;52.034;5.342;2023-05-07T11:43:56;101604.00;;;27.70
19282;BMP180;9774;52.034;5.342;2023-05-07T11:46:24;101606.00;;;27.80
19282;BMP180;9774;52.034;5.342;2023-05-07T11:48:53;101608.00;;;27.90
19282;BMP180;9774;52.034;5.342;2023-05-07T11:51:22;101604.00;;;27.90
19282;BMP180;9774;52.034;5.342;2023-05-07T11:53:49;101603.00;;;28.00
19282;BMP180;9774;52.034;5.342;2023-05-07T11:56:18;101602.00;;;28.00
19282;BMP180;9774;52.034;5.342;2023-05-07T11:58:47;101609.00;;;28.10
19282;BMP180;9774;52.034;5.342;2023-05-07T12:01:15;101607.00;;;28.10
19282;BMP180;9774;52.034;5.342;2023-05-07T12:03:46;101608.00;;;28.20
19282;BMP180;9774;52.034;5.342;2023-05-07T12:06:16;101606.00;;;28.20
19282;BMP180;9774;52.034;5.342;2023-05-07T12:08:45;101615.00;;;28.20
19282;BMP180;9774;52.034;5.342;2023-05-07T12:11:15;101609.00;;;28.30
19282;BMP180;9774;52.034;5.342;2023-05-07T12:13:44;101605.00;;;28.40
19282;BMP180;9774;52.034;5.342;2023-05-07T12:16:11;101595.00;;;28.50
19282;BMP180;9774;52.034;5.342;2023-05-07T12:18:39;101617.00;;;28.50
19282;BMP180;9774;52.034;5.342;2023-05-07T12:21:07;101605.00;;;28.60
19282;BMP180;9774;52.034;5.342;2023-05-07T12:23:37;101605.00;;;28.60
19282;BMP180;9774;52.034;5.342;2023-05-07T12:26:04;101614.00;;;28.60
19282;BMP180;9774;52.034;5.342;2023-05-07T12:28:37;101608.00;;;28.60
19282;BMP180;9774;52.034;5.342;2023-05-07T12:31:05;101605.00;;;28.70
19282;BMP180;9774;52.034;5.342;2023-05-07T12:33:33;101603.00;;;28.70
19282;BMP180;9774;52.034;5.342;2023-05-07T12:36:05;101602.00;;;28.80
19282;BMP180;9774;52.034;5.342;2023-05-07T12:38:41;101603.00;;;28.80
19282;BMP180;9774;52.034;5.342;2023-05-07T12:41:09;101600.00;;;28.80
19282;BMP180;9774;52.034;5.342;2023-05-07T12:43:38;101603.00;;;28.90
19282;BMP180;9774;52.034;5.342;2023-05-07T12:46:07;101601.00;;;28.90
19282;BMP180;9774;52.034;5.342;2023-05-07T12:48:36;101600.00;;;28.90
19282;BMP180;9774;52.034;5.342;2023-05-07T12:51:05;101605.00;;;28.80
19282;BMP180;9774;52.034;5.342;2023-05-07T12:53:33;101601.00;;;28.80
19282;BMP180;9774;52.034;5.342;2023-05-07T12:56:07;101609.00;;;28.80
19282;BMP180;9774;52.034;5.342;2023-05-07T12:58:36;101613.00;;;28.80
19282;BMP180;9774;52.034;5.342;2023-05-07T13:01:05;101613.00;;;28.80
19282;BMP180;9774;52.034;5.342;2023-05-07T13:03:34;101616.00;;;28.70
19282;BMP180;9774;52.034;5.342;2023-05-07T13:06:04;101624.00;;;28.80
19282;BMP180;9774;52.034;5.342;2023-05-07T13:08:32;101620.00;;;28.70
19282;BMP180;9774;52.034;5.342;2023-05-07T13:11:02;101627.00;;;28.70
19282;BMP180;9774;52.034;5.342;2023-05-07T13:13:32;101624.00;;;28.70
19282;BMP180;9774;52.034;5.342;2023-05-07T13:15:59;101629.00;;;28.70
19282;BMP180;9774;52.034;5.342;2023-05-07T13:18:28;101628.00;;;28.70
19282;BMP180;9774;52.034;5.342;2023-05-07T13:20:56;101629.00;;;28.70
19282;BMP180;9774;52.034;5.342;2023-05-07T13:23:24;101624.00;;;28.70
19282;BMP180;9774;52.034;5.342;2023-05-07T13:25:51;101626.00;;;28.70
19282;BMP180;9774;52.034;5.342;2023-05-07T13:28:19;101628.00;;;28.70
19282;BMP180;9774;52.034;5.342;2023-05-07T13:30:48;101628.00;;;28.70
19282;BMP180;9774;52.034;5.342;2023-05-07T13:33:18;101630.00;;;28.70
19282;BMP180;9774;52.034;5.342;2023-05-07T13:35:45;101627.00;;;28.70
19282;BMP180;9774;52.034;5.342;2023-05-07T13:38:12;101629.00;;;28.70
19282;BMP180;9774;52.034;5.342;2023-05-07T13:40:41;101633.00;;;28.70
19282;BMP180;9774;52.034;5.342;2023-05-07T13:43:09;101622.00;;;28.70
19282;BMP180;9774;52.034;5.342;2023-05-07T13:45:36;101626.00;;;28.80
19282;BMP180;9774;52.034;5.342;2023-05-07T13:48:05;101620.00;;;28.80
19282;BMP180;9774;52.034;5.342;2023-05-07T13:50:32;101616.00;;;28.80
19282;BMP180;9774;52.034;5.342;2023-05-07T13:53:00;101620.00;;;28.80
19282;BMP180;9774;52.034;5.342;2023-05-07T13:55:29;101624.00;;;28.80
19282;BMP180;9774;52.034;5.342;2023-05-07T13:57:57;101617.00;;;28.90
19282;BMP180;9774;52.034;5.342;2023-05-07T14:00:25;101619.00;;;28.90
19282;BMP180;9774;52.034;5.342;2023-05-07T14:02:53;101626.00;;;28.90
19282;BMP180;9774;52.034;5.342;2023-05-07T14:05:22;101620.00;;;28.90
19282;BMP180;9774;52.034;5.342;2023-05-07T14:07:51;101626.00;;;28.90
19282;BMP180;9774;52.034;5.342;2023-05-07T14:10:18;101625.00;;;29.00
19282;BMP180;9774;52.034;5.342;2023-05-07T14:12:46;101622.00;;;29.10
19282;BMP180;9774;52.034;5.342;2023-05-07T14:15:14;101626.00;;;29.10
19282;BMP180;9774;52.034;5.342;2023-05-07T14:17:42;101630.00;;;29.20